Time;durP1;ratioP1;P1;durP2;ratioP2;P2;SDS_P1;SDS_P2;PMS_P1;PMS_P2;Temp;Humidity;BMP_temperature;BMP_pressure;BME280_temperature;BME280_humidity;BME280_pressure;Samples;Min_cycle;Max_cycle;Signal;HPM_P1;HPM_P2
2022/08/13 00:00:58;;;;;;;12.45;5.65;;;;;;;;;;5030690;28;20492;-75
2022/08/13 00:03:23;;;;;;;5.47;4.90;;;;;;;;;;5026270;28;20021;-75
2022/08/13 00:05:50;;;;;;;8.82;5.45;;;;;;;;;;5030219;28;20477;-74
2022/08/13 00:08:16;;;;;;;6.68;4.97;;;;;;;;;;5030296;28;20080;-75
2022/08/13 00:10:42;;;;;;;6.65;5.28;;;;;;;;;;5027973;28;20091;-77
2022/08/13 00:13:12;;;;;;;7.10;5.22;;;;;;;;;;5016219;28;20508;-75
2022/08/13 00:15:39;;;;;;;9.32;5.50;;;;;;;;;;5046369;28;20034;-77
2022/08/13 00:18:08;;;;;;;9.80;5.82;;;;;;;;;;5031289;28;20456;-77
2022/08/13 00:20:37;;;;;;;6.68;5.45;;;;;;;;;;5030324;28;20022;-74
2022/08/13 00:23:02;;;;;;;8.82;5.95;;;;;;;;;;5030276;28;20533;-77
2022/08/13 00:25:28;;;;;;;5.83;5.10;;;;;;;;;;5020744;28;20112;-77
2022/08/13 00:27:57;;;;;;;6.47;5.18;;;;;;;;;;5027417;28;20486;-74
2022/08/13 00:30:33;;;;;;;9.45;4.63;;;;;;;;;;5031919;28;20401;-75
2022/08/13 00:33:02;;;;;;;6.32;5.15;;;;;;;;;;5030838;28;20037;-77
2022/08/13 00:35:28;;;;;;;11.68;7.05;;;;;;;;;;5046907;28;20021;-74
2022/08/13 00:37:55;;;;;;;10.57;5.88;;;;;;;;;;5031103;28;20505;-77
2022/08/13 00:40:20;;;;;;;8.15;5.40;;;;;;;;;;5030053;28;20037;-74
2022/08/13 00:42:46;;;;;;;13.57;7.13;;;;;;;;;;5030018;28;20478;-74
2022/08/13 00:45:11;;;;;;;8.90;5.38;;;;;;;;;;5030936;28;20047;-76
2022/08/13 00:50:21;;;;;;;9.35;5.25;;;;;;;;;;5038008;28;20428;-74
2022/08/13 00:52:49;;;;;;;6.97;5.40;;;;;;;;;;5029997;28;20026;-75
2022/08/13 00:55:16;;;;;;;6.03;5.45;;;;;;;;;;5040271;28;20443;-75
2022/08/13 00:57:41;;;;;;;6.63;5.10;;;;;;;;;;5051167;28;20021;-75
2022/08/13 01:00:15;;;;;;;6.68;5.47;;;;;;;;;;5050453;28;20359;-74
2022/08/13 01:02:44;;;;;;;11.10;6.13;;;;;;;;;;5035231;28;20022;-77
2022/08/13 01:05:10;;;;;;;8.45;5.50;;;;;;;;;;5030178;28;20160;-74
2022/08/13 01:07:37;;;;;;;7.70;5.70;;;;;;;;;;5031454;28;20133;-73
2022/08/13 01:10:03;;;;;;;8.93;6.25;;;;;;;;;;5031933;28;20021;-75
2022/08/13 01:12:28;;;;;;;8.63;5.72;;;;;;;;;;5032029;28;20048;-74
2022/08/13 01:14:55;;;;;;;11.57;6.40;;;;;;;;;;5036210;28;20025;-78
2022/08/13 01:17:22;;;;;;;8.35;6.03;;;;;;;;;;5031355;28;20029;-78
2022/08/13 01:19:47;;;;;;;9.35;6.28;;;;;;;;;;5031654;28;20017;-75
2022/08/13 01:22:13;;;;;;;9.73;6.38;;;;;;;;;;5032484;28;20340;-74
2022/08/13 01:24:38;;;;;;;7.47;5.70;;;;;;;;;;5022308;28;20037;-79
2022/08/13 01:27:04;;;;;;;6.77;6.07;;;;;;;;;;5030905;28;20025;-75
2022/08/13 01:29:30;;;;;;;8.15;5.72;;;;;;;;;;5031115;28;20261;-74
2022/08/13 01:31:58;;;;;;;9.65;6.10;;;;;;;;;;5032188;28;20029;-74
2022/08/13 01:34:25;;;;;;;6.97;6.22;;;;;;;;;;5035344;28;20068;-75
2022/08/13 01:36:53;;;;;;;8.07;6.07;;;;;;;;;;5031640;28;20493;-77
2022/08/13 01:39:21;;;;;;;10.20;6.05;;;;;;;;;;5035037;28;20022;-78
2022/08/13 01:41:47;;;;;;;12.23;6.57;;;;;;;;;;5033360;28;20030;-78
2022/08/13 01:44:12;;;;;;;8.20;5.85;;;;;;;;;;5035110;28;20056;-77
2022/08/13 01:52:09;;;;;;;6.95;5.70;;;;;;;;;;5035738;28;20048;-78
2022/08/13 01:54:36;;;;;;;12.02;6.25;;;;;;;;;;5035983;28;20025;-76
2022/08/13 01:57:02;;;;;;;6.10;5.22;;;;;;;;;;5053436;28;20523;-75
2022/08/13 01:59:28;;;;;;;14.38;6.13;;;;;;;;;;5032810;28;20049;-73
2022/08/13 02:01:57;;;;;;;6.85;5.80;;;;;;;;;;5033828;28;20053;-76
2022/08/13 02:04:25;;;;;;;7.82;5.85;;;;;;;;;;5019365;28;20133;-78
2022/08/13 02:06:50;;;;;;;10.25;5.40;;;;;;;;;;5046562;28;20436;-74
2022/08/13 02:09:16;;;;;;;10.48;6.47;;;;;;;;;;5033751;28;20025;-75
2022/08/13 02:11:41;;;;;;;9.52;6.07;;;;;;;;;;5033712;28;20083;-77
2022/08/13 02:14:08;;;;;;;7.70;5.77;;;;;;;;;;5046766;28;20020;-77
2022/08/13 02:16:34;;;;;;;9.68;6.75;;;;;;;;;;5069299;28;20827;-77
2022/08/13 02:19:04;;;;;;;11.35;5.85;;;;;;;;;;5017431;28;20058;-75
2022/08/13 02:21:37;;;;;;;7.53;5.68;;;;;;;;;;5031485;28;20025;-74
2022/08/13 02:24:03;;;;;;;6.93;5.70;;;;;;;;;;5033277;28;20022;-74
2022/08/13 02:26:29;;;;;;;8.93;6.45;;;;;;;;;;5033885;28;20470;-78
2022/08/13 02:28:54;;;;;;;9.05;6.35;;;;;;;;;;5033538;28;20060;-74
2022/08/13 02:31:20;;;;;;;7.78;5.90;;;;;;;;;;5048517;28;20029;-78
2022/08/13 02:33:46;;;;;;;9.40;6.95;;;;;;;;;;5031561;28;20021;-78
2022/08/13 02:36:12;;;;;;;7.82;6.30;;;;;;;;;;5034066;28;20033;-74
2022/08/13 02:38:37;;;;;;;7.82;5.40;;;;;;;;;;5033714;28;20386;-75
2022/08/13 02:43:47;;;;;;;8.13;6.15;;;;;;;;;;5029035;28;20129;-74
2022/08/13 02:46:13;;;;;;;8.43;6.28;;;;;;;;;;5024051;28;20453;-77
2022/08/13 02:48:40;;;;;;;10.38;5.88;;;;;;;;;;5034592;28;20117;-79
2022/08/13 02:51:11;;;;;;;8.27;6.07;;;;;;;;;;5033054;28;20036;-79
2022/08/13 02:53:38;;;;;;;8.98;5.70;;;;;;;;;;5033231;28;20095;-76
2022/08/13 02:56:06;;;;;;;7.93;6.32;;;;;;;;;;5047618;28;20041;-78
2022/08/13 02:58:36;;;;;;;6.57;5.80;;;;;;;;;;5068414;28;20057;-78
2022/08/13 03:01:04;;;;;;;6.32;5.55;;;;;;;;;;5031426;28;20018;-75
2022/08/13 03:03:31;;;;;;;8.23;6.15;;;;;;;;;;5031605;28;20474;-75
2022/08/13 03:05:57;;;;;;;8.52;5.85;;;;;;;;;;5048944;28;20033;-75
2022/08/13 03:08:22;;;;;;;7.20;5.43;;;;;;;;;;5032939;28;20067;-78
2022/08/13 03:10:47;;;;;;;6.73;6.03;;;;;;;;;;5033579;28;20423;-78
2022/08/13 03:13:21;;;;;;;7.45;6.53;;;;;;;;;;5048193;28;20267;-75
2022/08/13 03:15:46;;;;;;;6.68;5.80;;;;;;;;;;5033521;28;20021;-76
2022/08/13 03:18:12;;;;;;;7.75;6.07;;;;;;;;;;5044698;28;20084;-76
2022/08/13 03:20:38;;;;;;;9.05;5.57;;;;;;;;;;5026865;28;20072;-75
2022/08/13 03:23:03;;;;;;;9.60;6.03;;;;;;;;;;5032430;28;20032;-75
2022/08/13 03:25:31;;;;;;;10.27;6.80;;;;;;;;;;5030766;28;20112;-76
2022/08/13 03:27:59;;;;;;;11.15;6.75;;;;;;;;;;5029234;28;20029;-74
2022/08/13 03:30:26;;;;;;;9.77;6.95;;;;;;;;;;5032991;28;20041;-75
2022/08/13 03:32:51;;;;;;;9.88;7.00;;;;;;;;;;5032356;28;20524;-74
2022/08/13 03:35:18;;;;;;;9.07;6.80;;;;;;;;;;5032267;28;20109;-77
2022/08/13 03:37:46;;;;;;;7.55;6.40;;;;;;;;;;5046785;28;20033;-75
2022/08/13 03:40:15;;;;;;;9.23;7.05;;;;;;;;;;5032915;28;20381;-75
2022/08/13 03:42:41;;;;;;;9.13;7.07;;;;;;;;;;5042510;28;20478;-77
2022/08/13 03:45:07;;;;;;;8.30;7.40;;;;;;;;;;5047715;28;20087;-75
2022/08/13 03:47:33;;;;;;;10.00;7.55;;;;;;;;;;5032248;28;20037;-77
2022/08/13 03:49:59;;;;;;;10.55;7.82;;;;;;;;;;5027539;28;20377;-77
2022/08/13 03:52:24;;;;;;;8.45;6.85;;;;;;;;;;5031252;28;20140;-78
2022/08/13 03:54:50;;;;;;;8.35;7.25;;;;;;;;;;5036489;28;20100;-77
2022/08/13 03:57:17;;;;;;;9.60;7.22;;;;;;;;;;5035817;28;20029;-76
2022/08/13 03:59:43;;;;;;;9.75;7.88;;;;;;;;;;5032823;28;20373;-77
2022/08/13 04:02:08;;;;;;;8.48;7.53;;;;;;;;;;5033607;28;20025;-78
2022/08/13 04:04:34;;;;;;;9.98;7.80;;;;;;;;;;5031451;28;20116;-74
2022/08/13 04:07:00;;;;;;;9.70;6.75;;;;;;;;;;5030612;28;20501;-77
2022/08/13 04:09:25;;;;;;;9.30;7.00;;;;;;;;;;5032514;28;20040;-79
2022/08/13 04:11:50;;;;;;;9.40;7.70;;;;;;;;;;5033831;28;20013;-76
2022/08/13 04:14:16;;;;;;;9.85;7.72;;;;;;;;;;5044889;28;20033;-74
2022/08/13 04:16:41;;;;;;;9.30;7.32;;;;;;;;;;5037523;28;20029;-73
2022/08/13 04:19:06;;;;;;;9.43;8.18;;;;;;;;;;5033015;28;20029;-77
2022/08/13 04:21:33;;;;;;;9.13;8.02;;;;;;;;;;5032684;28;20031;-77
2022/08/13 04:23:58;;;;;;;7.80;7.00;;;;;;;;;;5028772;28;20014;-74
2022/08/13 04:26:25;;;;;;;8.13;7.25;;;;;;;;;;5031890;28;20029;-77
2022/08/13 04:28:50;;;;;;;9.00;7.40;;;;;;;;;;5031276;28;20041;-75
2022/08/13 04:31:16;;;;;;;10.52;7.03;;;;;;;;;;5031037;28;20026;-76
2022/08/13 04:33:42;;;;;;;11.15;7.45;;;;;;;;;;5032071;28;20029;-74
2022/08/13 04:36:07;;;;;;;10.32;7.80;;;;;;;;;;5031201;28;20029;-75
2022/08/13 04:38:33;;;;;;;9.32;7.47;;;;;;;;;;5022861;28;20398;-74
2022/08/13 04:40:59;;;;;;;8.35;7.30;;;;;;;;;;5011910;28;20780;-78
2022/08/13 04:43:24;;;;;;;13.95;7.75;;;;;;;;;;5019115;28;20116;-77
2022/08/13 04:45:49;;;;;;;11.57;7.70;;;;;;;;;;5033024;28;20405;-76
2022/08/13 04:48:15;;;;;;;8.30;6.68;;;;;;;;;;5062588;28;20033;-73
2022/08/13 04:50:42;;;;;;;8.57;7.65;;;;;;;;;;5027808;28;20021;-77
2022/08/13 04:53:27;;;;;;;9.20;7.70;;;;;;;;;;5040958;28;20068;-77
2022/08/13 04:55:52;;;;;;;7.30;6.60;;;;;;;;;;5046550;28;20037;-75
2022/08/13 04:58:17;;;;;;;10.38;7.20;;;;;;;;;;5030465;28;20450;-77
2022/08/13 05:00:44;;;;;;;7.47;6.30;;;;;;;;;;5027831;28;20020;-74
2022/08/13 05:03:13;;;;;;;9.98;7.25;;;;;;;;;;5048556;28;20040;-73
2022/08/13 05:05:40;;;;;;;13.13;8.02;;;;;;;;;;5028867;28;20037;-74
2022/08/13 05:08:05;;;;;;;8.30;7.00;;;;;;;;;;5047530;28;20476;-78
2022/08/13 05:10:31;;;;;;;9.13;7.20;;;;;;;;;;5035164;28;20091;-73
2022/08/13 05:13:01;;;;;;;9.75;7.25;;;;;;;;;;5035229;28;20029;-77
2022/08/13 05:15:26;;;;;;;8.57;6.65;;;;;;;;;;5034731;28;20018;-74
2022/08/13 05:17:53;;;;;;;8.57;6.68;;;;;;;;;;5034062;28;20028;-74
2022/08/13 05:20:19;;;;;;;7.28;5.80;;;;;;;;;;5034560;28;20014;-77
2022/08/13 05:22:44;;;;;;;10.88;7.35;;;;;;;;;;5034662;28;20029;-77
2022/08/13 05:25:09;;;;;;;6.47;5.60;;;;;;;;;;5050666;28;20025;-74
2022/08/13 05:27:34;;;;;;;8.40;6.28;;;;;;;;;;5034748;28;20350;-74
2022/08/13 05:30:00;;;;;;;6.47;5.88;;;;;;;;;;5035550;28;20388;-75
2022/08/13 05:32:27;;;;;;;9.55;6.57;;;;;;;;;;5032612;28;20696;-74
2022/08/13 05:34:52;;;;;;;8.05;6.93;;;;;;;;;;5038401;28;20467;-77
2022/08/13 05:37:18;;;;;;;7.22;6.38;;;;;;;;;;5054813;28;20112;-77
2022/08/13 05:39:43;;;;;;;8.52;6.53;;;;;;;;;;5035555;28;20377;-73
2022/08/13 05:42:09;;;;;;;8.52;6.30;;;;;;;;;;5033563;28;20029;-77
2022/08/13 05:44:34;;;;;;;8.93;6.63;;;;;;;;;;5034209;28;20460;-78
2022/08/13 05:47:03;;;;;;;8.00;5.95;;;;;;;;;;5033085;28;20029;-79
2022/08/13 05:49:33;;;;;;;7.80;5.70;;;;;;;;;;5033804;28;20042;-78
2022/08/13 05:51:58;;;;;;;7.72;5.70;;;;;;;;;;5034900;28;20179;-79
2022/08/13 05:54:23;;;;;;;11.23;6.10;;;;;;;;;;5034257;28;20053;-76
2022/08/13 05:56:49;;;;;;;5.53;4.70;;;;;;;;;;5035414;28;20025;-75
2022/08/13 06:04:53;;;;;;;9.38;6.60;;;;;;;;;;5032979;28;20489;-73
2022/08/13 06:07:19;;;;;;;8.45;6.68;;;;;;;;;;5050050;28;20060;-74
2022/08/13 06:09:45;;;;;;;9.93;5.07;;;;;;;;;;5034041;28;20017;-77
2022/08/13 06:12:11;;;;;;;9.80;5.38;;;;;;;;;;5034720;28;20141;-77
2022/08/13 06:14:38;;;;;;;7.18;4.90;;;;;;;;;;5035167;28;20096;-77
2022/08/13 06:17:03;;;;;;;8.60;5.45;;;;;;;;;;5034448;28;20033;-78
2022/08/13 06:19:32;;;;;;;9.82;5.32;;;;;;;;;;5034818;28;20367;-77
2022/08/13 06:22:02;;;;;;;13.95;6.30;;;;;;;;;;5034321;28;20096;-74
2022/08/13 06:24:28;;;;;;;10.77;7.28;;;;;;;;;;5034922;28;20025;-78
2022/08/13 06:26:55;;;;;;;7.03;5.22;;;;;;;;;;5038462;28;20048;-74
2022/08/13 06:29:22;;;;;;;8.38;7.05;;;;;;;;;;5034854;28;20013;-74
2022/08/13 06:31:48;;;;;;;12.13;7.13;;;;;;;;;;5034541;28;20076;-78
2022/08/13 06:34:13;;;;;;;7.43;6.60;;;;;;;;;;5034264;28;20021;-76
2022/08/13 06:36:38;;;;;;;7.80;6.05;;;;;;;;;;5035019;28;20052;-78
2022/08/13 06:39:05;;;;;;;6.95;5.05;;;;;;;;;;5046539;28;20022;-78
2022/08/13 06:41:31;;;;;;;8.27;6.22;;;;;;;;;;5027351;28;20036;-74
2022/08/13 06:43:56;;;;;;;6.78;5.78;;;;;;;;;;5031527;28;20037;-78
2022/08/13 06:46:24;;;;;;;7.50;5.38;;;;;;;;;;5034222;28;20064;-74
2022/08/13 06:48:50;;;;;;;6.60;5.05;;;;;;;;;;5034391;28;20056;-75
2022/08/13 06:51:15;;;;;;;7.55;5.10;;;;;;;;;;5033980;28;20030;-78
2022/08/13 06:53:42;;;;;;;7.05;5.28;;;;;;;;;;5034060;28;20091;-77
2022/08/13 06:56:11;;;;;;;11.27;5.43;;;;;;;;;;5040224;28;20025;-77
2022/08/13 06:58:36;;;;;;;9.55;5.13;;;;;;;;;;5033050;28;20027;-74
2022/08/13 07:01:02;;;;;;;5.13;4.10;;;;;;;;;;5045358;28;20026;-74
2022/08/13 07:03:28;;;;;;;6.43;3.92;;;;;;;;;;5030849;28;20389;-77
2022/08/13 07:05:56;;;;;;;8.57;3.90;;;;;;;;;;5033040;28;20556;-74
2022/08/13 07:08:24;;;;;;;4.38;3.65;;;;;;;;;;5033215;28;20384;-77
2022/08/13 07:10:51;;;;;;;6.07;3.60;;;;;;;;;;5032910;28;20029;-75
2022/08/13 07:13:19;;;;;;;4.93;3.40;;;;;;;;;;5032624;28;20059;-74
2022/08/13 07:15:51;;;;;;;5.85;3.38;;;;;;;;;;5047901;28;20018;-77
2022/08/13 07:18:16;;;;;;;4.40;3.15;;;;;;;;;;5030599;28;20030;-74
2022/08/13 07:20:42;;;;;;;5.90;3.70;;;;;;;;;;5032993;28;20511;-74
2022/08/13 07:23:07;;;;;;;4.93;3.33;;;;;;;;;;5032365;28;20104;-77
2022/08/13 07:25:35;;;;;;;5.18;3.15;;;;;;;;;;5033200;28;20670;-74
2022/08/13 07:28:01;;;;;;;5.88;3.15;;;;;;;;;;5047932;28;21191;-74
2022/08/13 07:30:26;;;;;;;4.10;3.13;;;;;;;;;;5047515;28;20052;-75
2022/08/13 07:32:52;;;;;;;3.80;3.25;;;;;;;;;;5032842;28;20029;-75
2022/08/13 07:35:17;;;;;;;19.90;3.70;;;;;;;;;;5063700;28;20021;-77
2022/08/13 07:37:43;;;;;;;4.20;2.97;;;;;;;;;;5040086;28;20037;-77
2022/08/13 07:40:08;;;;;;;7.93;3.40;;;;;;;;;;5061474;28;20029;-78
2022/08/13 07:42:39;;;;;;;7.78;3.10;;;;;;;;;;5067225;28;20443;-79
2022/08/13 07:45:05;;;;;;;6.13;3.15;;;;;;;;;;5061013;28;20072;-81
2022/08/13 07:47:31;;;;;;;4.78;2.83;;;;;;;;;;5031393;28;20064;-77
2022/08/13 07:49:58;;;;;;;6.10;3.10;;;;;;;;;;5030930;28;20025;-76
2022/08/13 07:52:25;;;;;;;4.20;3.17;;;;;;;;;;5027634;28;20524;-78
2022/08/13 07:54:50;;;;;;;4.63;2.85;;;;;;;;;;5047045;28;20114;-77
2022/08/13 07:57:17;;;;;;;4.15;3.65;;;;;;;;;;5031724;28;20112;-74
2022/08/13 07:59:42;;;;;;;3.42;3.13;;;;;;;;;;5031693;28;20009;-74
2022/08/13 08:02:07;;;;;;;5.45;3.92;;;;;;;;;;5028635;28;20021;-77
2022/08/13 08:04:37;;;;;;;7.00;3.00;;;;;;;;;;5032355;28;20076;-74
2022/08/13 08:07:03;;;;;;;5.20;3.45;;;;;;;;;;5047540;28;20286;-74
2022/08/13 08:09:31;;;;;;;4.65;2.60;;;;;;;;;;5028157;28;20083;-74
2022/08/13 08:14:44;;;;;;;9.57;2.95;;;;;;;;;;5031509;28;20440;-79
2022/08/13 08:17:11;;;;;;;3.20;2.90;;;;;;;;;;5031765;28;20045;-74
2022/08/13 08:19:40;;;;;;;4.45;2.60;;;;;;;;;;5031361;28;20030;-77
2022/08/13 08:22:06;;;;;;;3.03;2.40;;;;;;;;;;5030175;28;20119;-77
2022/08/13 08:24:32;;;;;;;3.35;3.05;;;;;;;;;;5031960;28;20017;-74
2022/08/13 08:27:01;;;;;;;3.20;2.58;;;;;;;;;;5031204;28;20470;-74
2022/08/13 08:29:28;;;;;;;5.03;2.90;;;;;;;;;;5031313;28;20029;-77
2022/08/13 08:31:57;;;;;;;5.30;2.78;;;;;;;;;;5031197;28;20032;-75
2022/08/13 08:34:22;;;;;;;6.38;2.85;;;;;;;;;;5023036;28;20108;-75
2022/08/13 08:36:47;;;;;;;5.13;3.33;;;;;;;;;;5031983;28;20754;-74
2022/08/13 08:44:42;;;;;;;4.43;2.67;;;;;;;;;;5031558;28;20101;-75
2022/08/13 08:47:10;;;;;;;5.00;3.20;;;;;;;;;;5031377;28;20456;-76
2022/08/13 08:49:36;;;;;;;3.55;2.83;;;;;;;;;;5031052;28;20049;-74
2022/08/13 08:52:05;;;;;;;4.80;2.85;;;;;;;;;;5031757;28;20092;-77
2022/08/13 08:54:31;;;;;;;3.95;2.85;;;;;;;;;;5032325;28;20048;-74
2022/08/13 08:56:57;;;;;;;7.10;2.90;;;;;;;;;;5035369;28;20017;-76
2022/08/13 08:59:23;;;;;;;4.75;2.65;;;;;;;;;;5038809;28;20052;-74
2022/08/13 09:01:51;;;;;;;7.50;3.00;;;;;;;;;;5051336;28;20102;-74
2022/08/13 09:04:18;;;;;;;4.90;2.53;;;;;;;;;;5044926;28;20022;-75
2022/08/13 09:06:44;;;;;;;8.00;2.90;;;;;;;;;;5031447;28;20492;-76
2022/08/13 09:09:09;;;;;;;4.25;2.50;;;;;;;;;;5031018;28;20121;-75
2022/08/13 09:11:38;;;;;;;3.03;2.80;;;;;;;;;;5031540;28;20436;-76
2022/08/13 09:14:08;;;;;;;4.38;2.88;;;;;;;;;;5030905;28;20646;-75
2022/08/13 09:16:34;;;;;;;3.38;3.03;;;;;;;;;;5047230;28;20121;-77
2022/08/13 09:18:59;;;;;;;5.25;2.67;;;;;;;;;;5031268;28;20096;-77
2022/08/13 09:21:25;;;;;;;4.60;3.05;;;;;;;;;;5030472;28;20061;-74
2022/08/13 09:23:50;;;;;;;5.07;3.00;;;;;;;;;;5046517;28;20033;-77
2022/08/13 09:26:17;;;;;;;2.88;2.67;;;;;;;;;;5029567;28;20112;-75
2022/08/13 09:28:42;;;;;;;3.70;2.50;;;;;;;;;;5028785;28;20029;-77
2022/08/13 09:31:10;;;;;;;3.13;2.67;;;;;;;;;;5029423;28;20033;-76
2022/08/13 09:33:39;;;;;;;3.33;2.60;;;;;;;;;;5032585;28;20104;-74
2022/08/13 09:36:10;;;;;;;2.47;2.28;;;;;;;;;;5031254;28;20017;-78
2022/08/13 09:38:36;;;;;;;3.47;2.80;;;;;;;;;;5030887;28;20029;-76
2022/08/13 09:41:09;;;;;;;3.25;2.50;;;;;;;;;;5031231;28;20020;-74
2022/08/13 09:43:44;;;;;;;3.95;2.90;;;;;;;;;;5029382;28;20083;-77
2022/08/13 09:46:10;;;;;;;3.40;2.45;;;;;;;;;;5030780;28;20044;-77
2022/08/13 09:48:36;;;;;;;5.00;2.95;;;;;;;;;;5029438;28;20112;-73
2022/08/13 09:51:04;;;;;;;4.05;2.70;;;;;;;;;;5030675;28;20112;-75
2022/08/13 09:53:29;;;;;;;4.93;2.65;;;;;;;;;;5029620;28;20033;-76
2022/08/13 09:55:56;;;;;;;7.07;2.88;;;;;;;;;;5041949;28;20103;-74
2022/08/13 09:58:22;;;;;;;2.97;2.22;;;;;;;;;;5032965;28;20057;-78
2022/08/13 10:00:48;;;;;;;6.38;2.38;;;;;;;;;;5034153;28;20017;-78
2022/08/13 10:03:17;;;;;;;5.15;2.22;;;;;;;;;;5033539;28;20036;-78
2022/08/13 10:05:43;;;;;;;4.35;2.75;;;;;;;;;;5034388;28;20498;-78
2022/08/13 10:08:13;;;;;;;4.38;2.90;;;;;;;;;;5035092;28;20017;-73
2022/08/13 10:10:38;;;;;;;4.82;2.70;;;;;;;;;;5034643;28;20021;-76
2022/08/13 10:13:03;;;;;;;3.42;2.15;;;;;;;;;;5048788;28;20528;-73
2022/08/13 10:15:29;;;;;;;2.57;2.27;;;;;;;;;;5034314;28;20083;-76
2022/08/13 10:17:55;;;;;;;3.45;2.40;;;;;;;;;;5045676;28;20691;-76
2022/08/13 10:20:22;;;;;;;6.13;2.58;;;;;;;;;;5033401;28;20397;-74
2022/08/13 10:22:48;;;;;;;6.18;2.38;;;;;;;;;;5049247;28;20536;-74
2022/08/13 10:25:17;;;;;;;2.88;2.22;;;;;;;;;;5039931;28;20100;-74
2022/08/13 10:27:42;;;;;;;4.95;2.47;;;;;;;;;;5031682;28;20053;-76
2022/08/13 10:30:08;;;;;;;5.15;3.60;;;;;;;;;;5032577;28;20057;-75
2022/08/13 10:32:33;;;;;;;3.67;2.50;;;;;;;;;;5033283;28;20032;-79
2022/08/13 10:35:01;;;;;;;3.38;2.13;;;;;;;;;;5032953;28;20060;-77
2022/08/13 10:37:28;;;;;;;4.55;1.90;;;;;;;;;;5032711;28;20026;-75
2022/08/13 10:39:53;;;;;;;3.92;2.38;;;;;;;;;;5033336;28;20430;-77
2022/08/13 10:42:19;;;;;;;4.60;2.20;;;;;;;;;;5033046;28;20083;-75
2022/08/13 10:44:44;;;;;;;3.70;2.63;;;;;;;;;;5049256;28;20295;-77
2022/08/13 10:47:12;;;;;;;6.43;2.00;;;;;;;;;;5033180;28;20033;-74
2022/08/13 10:49:37;;;;;;;4.90;2.85;;;;;;;;;;5033326;28;20294;-75
2022/08/13 10:52:02;;;;;;;3.10;2.00;;;;;;;;;;5048304;28;20041;-75
2022/08/13 10:54:27;;;;;;;2.72;2.50;;;;;;;;;;5035287;28;20036;-74
2022/08/13 10:56:53;;;;;;;2.57;2.23;;;;;;;;;;5062710;28;20037;-76
2022/08/13 10:59:21;;;;;;;2.50;2.30;;;;;;;;;;5033745;28;20293;-76
2022/08/13 11:01:46;;;;;;;4.78;2.35;;;;;;;;;;5049028;28;20247;-76
2022/08/13 11:04:12;;;;;;;2.90;2.17;;;;;;;;;;5034279;28;20036;-77
2022/08/13 11:06:38;;;;;;;2.42;2.20;;;;;;;;;;5028312;28;20046;-76
2022/08/13 11:09:04;;;;;;;7.63;2.90;;;;;;;;;;5020458;28;20037;-75
2022/08/13 11:11:29;;;;;;;3.55;2.20;;;;;;;;;;5035374;28;20406;-77
2022/08/13 11:13:58;;;;;;;2.47;2.27;;;;;;;;;;5049099;28;20026;-75
2022/08/13 11:17:17;;;;;;;6.45;2.40;;;;;;;;;;5049184;28;20381;-74
2022/08/13 11:19:15;;;;;;;5.32;2.00;;;;;;;;;;5014229;28;20038;-77
2022/08/13 11:21:41;;;;;;;3.00;2.35;;;;;;;;;;5025166;28;20037;-77
2022/08/13 11:24:07;;;;;;;6.18;2.50;;;;;;;;;;5034625;28;20016;-74
2022/08/13 11:26:32;;;;;;;3.88;2.28;;;;;;;;;;5034402;28;20116;-74
2022/08/13 11:28:58;;;;;;;2.88;2.50;;;;;;;;;;5034058;28;20482;-75
2022/08/13 11:31:23;;;;;;;2.80;2.47;;;;;;;;;;5032165;28;20044;-76
2022/08/13 11:33:49;;;;;;;3.35;2.38;;;;;;;;;;5032542;28;20266;-75
2022/08/13 11:36:14;;;;;;;3.53;2.28;;;;;;;;;;5014760;28;20030;-77
2022/08/13 11:38:39;;;;;;;2.92;2.30;;;;;;;;;;5016016;28;20038;-74
2022/08/13 11:41:05;;;;;;;2.90;2.53;;;;;;;;;;5033197;28;20389;-77
2022/08/13 11:43:31;;;;;;;2.67;2.00;;;;;;;;;;5032684;28;20025;-75
2022/08/13 11:45:59;;;;;;;3.65;2.42;;;;;;;;;;5029170;28;20047;-75
2022/08/13 11:48:24;;;;;;;6.00;2.15;;;;;;;;;;5014146;28;20533;-75
2022/08/13 11:50:50;;;;;;;3.03;2.25;;;;;;;;;;5033678;28;20061;-77
2022/08/13 11:53:16;;;;;;;3.50;2.03;;;;;;;;;;5032108;28;20112;-77
2022/08/13 11:55:41;;;;;;;2.85;2.55;;;;;;;;;;5043409;28;20063;-77
2022/08/13 11:58:07;;;;;;;4.57;2.23;;;;;;;;;;5043024;28;20014;-75
2022/08/13 12:00:33;;;;;;;6.50;2.55;;;;;;;;;;5033614;28;20270;-77
2022/08/13 12:03:01;;;;;;;3.88;2.90;;;;;;;;;;5048874;28;20043;-77
2022/08/13 12:05:27;;;;;;;3.53;2.50;;;;;;;;;;5032507;28;20394;-76
2022/08/13 12:07:52;;;;;;;3.47;2.95;;;;;;;;;;5036130;28;20021;-76
2022/08/13 12:10:18;;;;;;;4.30;2.63;;;;;;;;;;5033810;28;20025;-76
2022/08/13 12:12:44;;;;;;;2.63;2.30;;;;;;;;;;5033508;28;20017;-75
2022/08/13 12:15:09;;;;;;;3.53;2.30;;;;;;;;;;5033248;28;20036;-76
2022/08/13 12:17:34;;;;;;;3.80;2.60;;;;;;;;;;5032097;28;20148;-75
2022/08/13 12:20:00;;;;;;;2.55;2.35;;;;;;;;;;5033324;28;20056;-76
2022/08/13 12:22:25;;;;;;;2.10;1.90;;;;;;;;;;5033210;28;20030;-75
2022/08/13 12:24:52;;;;;;;3.72;2.42;;;;;;;;;;5032105;28;20025;-78
2022/08/13 12:27:17;;;;;;;3.83;2.70;;;;;;;;;;5048190;28;20041;-76
2022/08/13 12:29:42;;;;;;;2.42;2.22;;;;;;;;;;5048447;28;20070;-76
2022/08/13 12:32:07;;;;;;;4.97;2.43;;;;;;;;;;5033286;28;20037;-76
2022/08/13 12:34:33;;;;;;;4.57;2.30;;;;;;;;;;5033340;28;20274;-76
2022/08/13 12:36:59;;;;;;;2.30;2.10;;;;;;;;;;5033290;28;20393;-77
2022/08/13 12:39:24;;;;;;;4.60;2.58;;;;;;;;;;5032859;28;20245;-76
2022/08/13 12:41:49;;;;;;;2.90;2.30;;;;;;;;;;5031576;28;20040;-77
2022/08/13 12:44:14;;;;;;;2.15;1.95;;;;;;;;;;5031323;28;20286;-77
2022/08/13 12:46:39;;;;;;;13.53;3.30;;;;;;;;;;5033316;28;20030;-77
2022/08/13 12:49:08;;;;;;;2.50;2.30;;;;;;;;;;5032986;28;20273;-76
2022/08/13 12:51:33;;;;;;;4.03;2.65;;;;;;;;;;5032596;28;20747;-76
2022/08/13 12:53:58;;;;;;;3.70;2.30;;;;;;;;;;5047798;28;20039;-76
2022/08/13 12:56:24;;;;;;;5.20;2.47;;;;;;;;;;5029861;28;20301;-77
2022/08/13 12:58:49;;;;;;;3.45;2.20;;;;;;;;;;5034795;28;20044;-76
2022/08/13 13:01:14;;;;;;;6.20;2.33;;;;;;;;;;5031962;28;20029;-76
2022/08/13 13:03:39;;;;;;;2.50;2.30;;;;;;;;;;5030687;28;20309;-77
2022/08/13 13:06:05;;;;;;;3.30;2.50;;;;;;;;;;5031557;28;20278;-77
2022/08/13 13:08:31;;;;;;;2.70;2.50;;;;;;;;;;5030936;28;20793;-77
2022/08/13 13:10:57;;;;;;;2.53;2.33;;;;;;;;;;5031441;28;20017;-77
2022/08/13 13:13:23;;;;;;;3.55;2.50;;;;;;;;;;5046773;28;20481;-75
2022/08/13 13:15:52;;;;;;;2.72;2.42;;;;;;;;;;5066451;28;20021;-75
2022/08/13 13:18:19;;;;;;;2.92;2.50;;;;;;;;;;5032480;28;20065;-78
2022/08/13 13:20:45;;;;;;;4.00;2.20;;;;;;;;;;5031547;28;20021;-77
2022/08/13 13:23:12;;;;;;;3.45;2.10;;;;;;;;;;5031159;28;20109;-77
2022/08/13 13:25:37;;;;;;;3.22;2.17;;;;;;;;;;5031482;28;20056;-75
2022/08/13 13:28:03;;;;;;;2.45;2.25;;;;;;;;;;5030477;28;20473;-76
2022/08/13 13:30:29;;;;;;;3.72;2.38;;;;;;;;;;5034614;28;20822;-76
2022/08/13 13:32:55;;;;;;;4.53;2.60;;;;;;;;;;5035036;28;20573;-77
2022/08/13 13:35:21;;;;;;;2.88;2.13;;;;;;;;;;5050902;28;20277;-76
2022/08/13 13:37:49;;;;;;;2.38;2.20;;;;;;;;;;5035065;28;20033;-77
2022/08/13 13:40:16;;;;;;;2.20;2.00;;;;;;;;;;5035696;28;20026;-76
2022/08/13 13:42:41;;;;;;;2.83;2.55;;;;;;;;;;5033418;28;20101;-77
2022/08/13 13:45:10;;;;;;;4.57;2.60;;;;;;;;;;5035178;28;20061;-77
2022/08/13 13:47:36;;;;;;;3.53;2.38;;;;;;;;;;5025999;28;20025;-76
2022/08/13 13:50:02;;;;;;;6.40;2.70;;;;;;;;;;5034907;28;20028;-76
2022/08/13 13:52:27;;;;;;;2.63;2.42;;;;;;;;;;5033585;28;20036;-76
2022/08/13 13:54:53;;;;;;;2.83;2.53;;;;;;;;;;5039353;28;20443;-77
2022/08/13 13:57:21;;;;;;;2.45;2.15;;;;;;;;;;5045991;28;20283;-77
2022/08/13 13:59:49;;;;;;;3.00;2.60;;;;;;;;;;5034489;28;20497;-77
2022/08/13 14:02:14;;;;;;;2.90;2.38;;;;;;;;;;5034291;28;20034;-78
2022/08/13 14:04:40;;;;;;;4.18;2.28;;;;;;;;;;5035693;28;20384;-75
2022/08/13 14:07:06;;;;;;;2.22;2.03;;;;;;;;;;5034652;28;20045;-76
2022/08/13 14:09:32;;;;;;;2.20;2.10;;;;;;;;;;5034911;28;20026;-76
2022/08/13 14:11:59;;;;;;;3.13;2.83;;;;;;;;;;5034164;28;20033;-77
2022/08/13 14:14:24;;;;;;;3.33;3.03;;;;;;;;;;5047170;28;20542;-77
2022/08/13 14:16:52;;;;;;;5.07;3.13;;;;;;;;;;5034823;28;20132;-75
2022/08/13 14:19:17;;;;;;;3.20;2.40;;;;;;;;;;5032996;28;20028;-77
2022/08/13 14:21:43;;;;;;;2.40;2.20;;;;;;;;;;5035922;28;20022;-76
2022/08/13 14:24:08;;;;;;;2.75;2.55;;;;;;;;;;5037516;28;20018;-77
2022/08/13 14:26:34;;;;;;;5.47;3.45;;;;;;;;;;5033629;28;20055;-76
2022/08/13 14:29:00;;;;;;;7.15;2.85;;;;;;;;;;5049429;28;20116;-77
2022/08/13 14:31:26;;;;;;;3.80;3.03;;;;;;;;;;5034277;28;20029;-76
2022/08/13 14:33:52;;;;;;;2.93;2.60;;;;;;;;;;5049363;28;20033;-77
2022/08/13 14:36:17;;;;;;;5.22;2.90;;;;;;;;;;5043426;28;20340;-75
2022/08/13 14:38:43;;;;;;;5.17;2.70;;;;;;;;;;5034590;28;20442;-75
2022/08/13 14:41:10;;;;;;;3.42;2.67;;;;;;;;;;5031584;28;20856;-75
2022/08/13 14:43:35;;;;;;;5.25;2.95;;;;;;;;;;5032668;28;20013;-77
2022/08/13 14:46:02;;;;;;;3.78;2.70;;;;;;;;;;5032676;28;20030;-76
2022/08/13 14:48:29;;;;;;;7.35;4.03;;;;;;;;;;5049147;28;20109;-76
2022/08/13 14:50:59;;;;;;;3.30;2.83;;;;;;;;;;5033605;28;20401;-77
2022/08/13 14:53:25;;;;;;;3.80;2.90;;;;;;;;;;5034119;28;20056;-77
2022/08/13 14:55:52;;;;;;;4.03;3.25;;;;;;;;;;5036103;28;20026;-78
2022/08/13 14:58:17;;;;;;;7.72;3.45;;;;;;;;;;5035424;28;20013;-76
2022/08/13 15:00:44;;;;;;;4.03;2.70;;;;;;;;;;5034066;28;20471;-76